Time;durP1;ratioP1;P1;durP2;ratioP2;P2;SDS_P1;SDS_P2;PMS_P1;PMS_P2;Temp;Humidity;BMP_temperature;BMP_pressure;BME280_temperature;BME280_humidity;BME280_pressure;Samples;Min_cycle;Max_cycle;Signal;HPM_P1;HPM_P2
2023/03/31 00:01:24;;;;;;;;;;;;;;;;;;5054949;28;19909;-71
2023/03/31 00:04:00;;;;;;;;;;;;;;;;;;5054786;28;20285;-70
2023/03/31 00:06:27;;;;;;;;;;;;;;;;;;5052996;28;19963;-71
2023/03/31 00:08:53;;;;;;;;;;;;;;;;;;5054889;28;19932;-70
2023/03/31 00:11:20;;;;;;;;;;;;;;;;;;5054472;28;19920;-69
2023/03/31 00:13:47;;;;;;;;;;;;;;;;;;5054769;28;19955;-71
2023/03/31 00:16:17;;;;;;;;;;;;;;;;;;5054328;28;19955;-70
2023/03/31 00:18:49;;;;;;;;;;;;;;;;;;5054258;28;19955;-69
2023/03/31 00:21:30;;;;;;;;;;;;;;;;;;5054695;28;19908;-71
2023/03/31 00:23:56;;;;;;;;;;;;;;;;;;5054481;28;20405;-69
2023/03/31 00:26:28;;;;;;;;;;;;;;;;;;5054272;28;20392;-69
2023/03/31 00:28:58;;;;;;;;;;;;;;;;;;5054564;28;19909;-70
2023/03/31 00:31:26;;;;;;;;;;;;;;;;;;5054090;28;19916;-69
2023/03/31 00:33:52;;;;;;;;;;;;;;;;;;5052846;28;20003;-69
2023/03/31 00:36:35;;;;;;;;;;;12.50;99.90;;;;;;5054099;28;20296;-68
2023/03/31 00:39:07;;;;;;;;;;;12.40;99.90;;;;;;5054113;28;19920;-70
2023/03/31 00:41:40;;;;;;;;;;;12.30;99.90;;;;;;5054103;28;20278;-70
2023/03/31 00:44:28;;;;;;;;;;;12.30;99.90;;;;;;5053419;28;19917;-68
2023/03/31 00:47:01;;;;;;;;;;;;;;;;;;5053050;28;21314;-70
2023/03/31 00:49:27;;;;;;;;;;;;;;;;;;5054242;28;19959;-69
2023/03/31 00:51:54;;;;;;;;;;;;;;;;;;5053751;28;19909;-68
2023/03/31 00:54:24;;;;;;;;;;;;;;;;;;5053864;28;20280;-68
2023/03/31 00:56:52;;;;;;;;;;;;;;;;;;5052652;28;19912;-68
2023/03/31 00:59:18;;;;;;;;;;;;;;;;;;5054061;28;20430;-69
2023/03/31 01:01:45;;;;;;;;;;;;;;;;;;5053948;28;19909;-70
2023/03/31 01:04:15;;;;;;;;;;;;;;;;;;5053657;28;19909;-68
2023/03/31 01:06:45;;;;;;;;;;;;;;;;;;5052831;28;19916;-69
2023/03/31 01:09:12;;;;;;;;;;;;;;;;;;5052457;28;20357;-68
2023/03/31 01:11:39;;;;;;;;;;;;;;;;;;5053816;28;19913;-69
2023/03/31 01:14:06;;;;;;;;;;;;;;;;;;5053569;28;20330;-68
2023/03/31 01:16:32;;;;;;;;;;;;;;;;;;5053479;28;20366;-70
2023/03/31 01:19:02;;;;;;;;;;;;;;;;;;5053487;28;19975;-69
2023/03/31 01:21:35;;;;;;;;;;;;;;;;;;5053879;28;19909;-68
2023/03/31 01:24:04;;;;;;;;;;;;;;;;;;5053670;28;19913;-72
2023/03/31 01:26:31;;;;;;;;;;;;;;;;;;5053525;28;19909;-72
2023/03/31 01:28:58;;;;;;;;;;;;;;;;;;5053543;28;20399;-72
2023/03/31 01:31:25;;;;;;;;;;;;;;;;;;5053643;28;19908;-72
2023/03/31 01:33:55;;;;;;;;;;;;;;;;;;5053331;28;19913;-71
2023/03/31 01:36:21;;;;;;;;;;;;;;;;;;5053457;28;20331;-72
2023/03/31 01:38:48;;;;;;;;;;;;;;;;;;5053668;28;20448;-71
2023/03/31 01:41:14;;;;;;;;;;;;;;;;;;5053809;28;19916;-71
2023/03/31 01:43:45;;;;;;;;;;;;;;;;;;5053200;28;20291;-71
2023/03/31 01:46:15;;;;;;;;;;;;;;;;;;5051895;28;20003;-71
2023/03/31 01:48:42;;;;;;;;;;;;;;;;;;5053611;28;19952;-70
2023/03/31 01:51:11;;;;;;;;;;;;;;;;;;5053197;28;20389;-71
2023/03/31 01:53:41;;;;;;;;;;;;;;;;;;5053227;28;19916;-71
2023/03/31 01:56:08;;;;;;;;;;;;;;;;;;5053164;28;19909;-71
2023/03/31 01:58:34;;;;;;;;;;;;;;;;;;5053052;28;19909;-70
2023/03/31 02:01:02;;;;;;;;;;;;;;;;;;5053345;28;19909;-70
2023/03/31 02:03:37;;;;;;;;;;;;;;;;;;5053279;28;20395;-70
2023/03/31 02:06:04;;;;;;;;;;;;;;;;;;5051818;28;19916;-72
2023/03/31 02:08:30;;;;;;;;;;;;;;;;;;5053438;28;19963;-71
2023/03/31 02:10:57;;;;;;;;;;;;;;;;;;5053048;28;19958;-72
2023/03/31 02:13:27;;;;;;;;;;;;;;;;;;5052991;28;20357;-72
2023/03/31 02:15:56;;;;;;;;;;;;;;;;;;5051678;28;19920;-70
2023/03/31 02:18:24;;;;;;;;;;;;;;;;;;5055794;28;19909;-70
2023/03/31 02:20:56;;;;;;;;;;;;;;;;;;5055321;28;19915;-70
2023/03/31 02:23:25;;;;;;;;;;;;;;;;;;5056720;28;19961;-71
2023/03/31 02:25:51;;;;;;;;;;;;;;;;;;5056479;28;19913;-71
2023/03/31 02:28:18;;;;;;;;;;;;;;;;;;5056861;28;19936;-70
2023/03/31 02:30:45;;;;;;;;;;;;;;;;;;5056408;28;20329;-70
2023/03/31 02:33:11;;;;;;;;;;;;;;;;;;5056536;28;19909;-71
2023/03/31 02:35:38;;;;;;;;;;;;;;;;;;5056271;28;20035;-72
2023/03/31 02:38:05;;;;;;;;;;;;;;;;;;5056621;28;20340;-71
2023/03/31 02:40:32;;;;;;;;;;;;;;;;;;5056689;28;20000;-71
2023/03/31 02:43:02;;;;;;;;;;;;;;;;;;5056036;28;20272;-71
2023/03/31 02:45:32;;;;;;;;;;;;;;;;;;5056293;28;20377;-71
2023/03/31 02:47:59;;;;;;;;;;;;;;;;;;5056291;28;19959;-71
2023/03/31 02:50:25;;;;;;;;;;;;;;;;;;5056582;28;19909;-71
2023/03/31 02:52:58;;;;;;;;;;;;;;;;;;5055997;28;19963;-71
2023/03/31 02:55:29;;;;;;;;;;;;;;;;;;5054569;28;20411;-74
2023/03/31 02:57:56;;;;;;;;;;;;;;;;;;5055847;28;19908;-72
2023/03/31 03:00:26;;;;;;;;;;;;;;;;;;5055850;28;19916;-72
2023/03/31 03:02:56;;;;;;;;;;;;;;;;;;5054432;28;19916;-74
2023/03/31 03:05:22;;;;;;;;;;;;;;;;;;5055873;28;19909;-73
2023/03/31 03:07:52;;;;;;;;;;;;;;;;;;5055718;28;19908;-73
2023/03/31 03:10:19;;;;;;;;;;;;;;;;;;5055870;28;19999;-74
2023/03/31 03:12:45;;;;;;;;;;;;;;;;;;5055835;28;19909;-74
2023/03/31 03:15:12;;;;;;;;;;;;;;;;;;5055482;28;20377;-74
2023/03/31 03:17:39;;;;;;;;;;;;;;;;;;5055641;28;19940;-74
2023/03/31 03:20:08;;;;;;;;;;;;;;;;;;5055721;28;19909;-73
2023/03/31 03:22:35;;;;;;;;;;;;;;;;;;5055843;28;20373;-73
2023/03/31 03:25:01;;;;;;;;;;;;;;;;;;5055828;28;19915;-72
2023/03/31 03:27:28;;;;;;;;;;;;;;;;;;5054298;28;19994;-73
2023/03/31 03:29:55;;;;;;;;;;;;;;;;;;5054621;28;19909;-72
2023/03/31 03:32:22;;;;;;;;;;;;;;;;;;5055284;28;19915;-72
2023/03/31 03:34:52;;;;;;;;;;;;;;;;;;5055735;28;19913;-74
2023/03/31 03:37:19;;;;;;;;;;;;;;;;;;5055279;28;19909;-73
2023/03/31 03:39:48;;;;;;;;;;;;;;;;;;5055370;28;19908;-73
2023/03/31 03:42:15;;;;;;;;;;;;;;;;;;5054797;28;19909;-71
2023/03/31 03:44:42;;;;;;;;;;;;;;;;;;5055493;28;20028;-73
2023/03/31 03:47:09;;;;;;;;;;;;;;;;;;5055471;28;19984;-73
2023/03/31 03:49:38;;;;;;;;;;;;;;;;;;5054918;28;19908;-74
2023/03/31 03:52:05;;;;;;;;;;;;;;;;;;5054814;28;20369;-73
2023/03/31 03:54:31;;;;;;;;;;;;;;;;;;5054750;28;19935;-73
2023/03/31 03:56:58;;;;;;;;;;;;;;;;;;5054670;28;20388;-74
2023/03/31 03:59:25;;;;;;;;;;;;;;;;;;5054746;28;20317;-73
2023/03/31 04:01:51;;;;;;;;;;;;;;;;;;5054941;28;20289;-74
2023/03/31 04:04:18;;;;;;;;;;;;;;;;;;5054695;28;19915;-73
2023/03/31 04:06:45;;;;;;;;;;;;;;;;;;5054924;28;19909;-72
2023/03/31 04:09:11;;;;;;;;;;;;;;;;;;5054550;28;19909;-73
2023/03/31 04:11:38;;;;;;;;;;;;;;;;;;5054863;28;19944;-73
2023/03/31 04:14:04;;;;;;;;;;;;;;;;;;5054358;28;19956;-74
2023/03/31 04:16:33;;;;;;;;;;;;;;;;;;5054416;28;19909;-73
2023/03/31 04:19:02;;;;;;;;;;;;;;;;;;5053215;28;19912;-73
2023/03/31 04:21:29;;;;;;;;;;;;;;;;;;5052970;28;20304;-74
2023/03/31 04:24:02;;;;;;;;;;;;;;;;;;5054302;28;19909;-75
2023/03/31 04:26:49;;;;;;;;;;;;;;;;;;5054837;28;19909;-73
2023/03/31 04:29:15;;;;;;;;;;;;;;;;;;5054540;28;19909;-74
2023/03/31 04:31:42;;;;;;;;;;;;;;;;;;5054246;28;19908;-73
2023/03/31 04:34:12;;;;;;;;;;;;;;;;;;5054209;28;19919;-74
2023/03/31 04:36:41;;;;;;;;;;;;;;;;;;5054457;28;19909;-73
2023/03/31 04:39:11;;;;;;;;;;;;;;;;;;5054102;28;19912;-74
2023/03/31 04:41:38;;;;;;;;;;;;;;;;;;5054154;28;19917;-75
2023/03/31 04:44:05;;;;;;;;;;;;;;;;;;5053457;28;19920;-74
2023/03/31 04:46:34;;;;;;;;;;;;;;;;;;5054132;28;19909;-75
2023/03/31 04:49:02;;;;;;;;;;;10.70;99.90;;;;;;5052589;28;19909;-74
2023/03/31 04:51:36;;;;;;;;;;;10.60;99.90;;;;;;5053819;28;19913;-74
2023/03/31 04:54:03;;;;;;;;;;;10.60;99.90;;;;;;5053692;28;19920;-73
2023/03/31 04:56:30;;;;;;;;;;;10.70;99.90;;;;;;5054182;28;20385;-74
2023/03/31 04:59:02;;;;;;;;;;;10.80;99.90;;;;;;5053854;28;19916;-75
2023/03/31 05:01:32;;;;;;;;;;;10.80;97.30;;;;;;5054029;28;19909;-73
2023/03/31 05:03:59;;;;;;;;;;;10.90;1.00;;;;;;5049390;28;19909;-74
2023/03/31 05:06:26;;;;;;;;;;;10.90;41.50;;;;;;5053867;28;19913;-74
2023/03/31 05:08:59;;;;;;;;;;;10.80;22.10;;;;;;5053753;28;20432;-73
2023/03/31 05:11:29;;;;;;;;;;;10.90;23.80;;;;;;5054123;28;19943;-74
2023/03/31 05:14:00;;;;;;;;;;;10.90;1.00;;;;;;5053769;28;19916;-73
2023/03/31 05:16:32;;;;;;;;;;;11.00;1.00;;;;;;5052692;28;20003;-74
2023/03/31 05:18:59;;;;;;;;;;;11.00;1.00;;;;;;5053615;28;19916;-74
2023/03/31 05:21:27;;;;;;;;;;;11.10;1.00;;;;;;5053612;28;19909;-73
2023/03/31 05:23:54;;;;;;;;;;;11.20;1.00;;;;;;5053548;28;19916;-73
2023/03/31 05:26:24;;;;;;;;;;;11.10;1.00;;;;;;5053681;28;20391;-73
2023/03/31 05:28:52;;;;;;;;;;;11.10;1.00;;;;;;5053913;28;20126;-74
2023/03/31 05:31:19;;;;;;;;;;;11.20;1.00;;;;;;5053581;28;19931;-74
2023/03/31 05:33:46;;;;;;;;;;;11.20;1.00;;;;;;5052333;28;19909;-74
2023/03/31 05:36:16;;;;;;;;;;;11.20;1.00;;;;;;5053356;28;20003;-73
2023/03/31 05:38:47;;;;;;;;;;;11.20;1.00;;;;;;5053490;28;19959;-72
2023/03/31 05:41:15;;;;;;;;;;;11.10;1.00;;;;;;5053768;28;20452;-73
2023/03/31 05:43:42;;;;;;;;;;;11.20;1.00;;;;;;5052948;28;20392;-74
2023/03/31 05:46:15;;;;;;;;;;;11.20;1.00;;;;;;5051953;28;19931;-73
2023/03/31 05:48:43;;;;;;;;;;;11.10;1.00;;;;;;5052423;28;19920;-73
2023/03/31 05:51:14;;;;;;;;;;;11.20;1.00;;;;;;5053379;28;19913;-73
2023/03/31 05:53:41;;;;;;;;;;;11.20;1.00;;;;;;5057119;28;19956;-73
2023/03/31 05:56:17;;;;;;;;;;;11.20;1.00;;;;;;5057029;28;19917;-73
2023/03/31 05:58:44;;;;;;;;;;;11.20;1.00;;;;;;5057599;28;19912;-73
2023/03/31 06:01:21;;;;;;;;;;;11.30;1.00;;;;;;5057190;28;20011;-72
2023/03/31 06:03:48;;;;;;;;;;;11.00;1.00;;;;;;5056953;28;20281;-73
2023/03/31 06:06:15;;;;;;;;;;;11.00;1.00;;;;;;5057138;28;20403;-73
2023/03/31 06:08:46;;;;;;;;;;;11.20;1.00;;;;;;5057059;28;19932;-73
2023/03/31 06:11:18;;;;;;;;;;;11.10;1.00;;;;;;5057025;28;19909;-73
2023/03/31 06:13:51;;;;;;;;;;;11.20;1.00;;;;;;5056806;28;20001;-73
2023/03/31 06:16:18;;;;;;;;;;;11.20;1.00;;;;;;5055423;28;19954;-74
2023/03/31 06:18:45;;;;;;;;;;;11.20;1.00;;;;;;5056845;28;20285;-72
2023/03/31 06:21:27;;;;;;;;;;;11.20;1.00;;;;;;5056971;28;19915;-71
2023/03/31 06:23:57;;;;;;;;;;;11.30;1.00;;;;;;5056566;28;19908;-72
2023/03/31 06:26:49;;;;;;;;;;;11.40;1.00;;;;;;5056513;28;19909;-73
2023/03/31 06:29:16;;;;;;;;;;;11.40;1.00;;;;;;5056259;28;19909;-73
2023/03/31 06:31:43;;;;;;;;;;;11.40;1.00;;;;;;5056628;28;19909;-73
2023/03/31 06:34:13;;;;;;;;;;;11.40;1.00;;;;;;5056539;28;20312;-73
2023/03/31 06:36:43;;;;;;;;;;;11.40;1.00;;;;;;5056646;28;19920;-73
2023/03/31 06:39:23;;;;;;;;;;;11.40;1.00;;;;;;5052021;28;19963;-72
2023/03/31 06:41:50;;;;;;;;;;;11.40;1.00;;;;;;5054794;28;19920;-73
2023/03/31 06:44:18;;;;;;;;;;;11.40;1.00;;;;;;5055825;28;19963;-73
2023/03/31 06:46:48;;;;;;;;;;;11.50;1.00;;;;;;5056093;28;20008;-72
2023/03/31 06:49:15;;;;;;;;;;;11.50;1.00;;;;;;5056153;28;20296;-72
2023/03/31 06:51:51;;;;;;;;;;;11.50;1.00;;;;;;5056035;28;19909;-71
2023/03/31 06:54:20;;;;;;;;;;;11.30;1.00;;;;;;5054346;28;19956;-73
2023/03/31 06:56:52;;;;;;;;;;;10.90;1.00;;;;;;5051642;28;19908;-72
2023/03/31 06:59:22;;;;;;;;;;;10.80;1.00;;;;;;5054564;28;19909;-73
2023/03/31 07:01:53;;;;;;;;;;;10.90;1.00;;;;;;5055830;28;19909;-73
2023/03/31 07:04:20;;;;;;;;;;;11.10;1.00;;;;;;5054535;28;19917;-73
2023/03/31 07:06:50;;;;;;;;;;;11.30;1.00;;;;;;5054507;28;20050;-72
2023/03/31 07:09:17;;;;;;;;;;;11.50;1.00;;;;;;5055747;28;20369;-73
2023/03/31 07:11:47;;;;;;;;;;;11.50;1.00;;;;;;5055677;28;19909;-74
2023/03/31 07:14:14;;;;;;;;;;;11.50;1.00;;;;;;5055578;28;19913;-72
2023/03/31 07:16:41;;;;;;;;;;;11.50;1.00;;;;;;5055573;28;19913;-72
2023/03/31 07:19:09;;;;;;;;;;;11.60;1.00;;;;;;5055714;28;19916;-72
2023/03/31 07:21:46;;;;;;;;;;;11.50;1.00;;;;;;5055509;28;19908;-72
2023/03/31 07:24:12;;;;;;;;;;;11.30;1.00;;;;;;5055538;28;19916;-73
2023/03/31 07:26:43;;;;;;;;;;;11.40;1.00;;;;;;5055501;28;20342;-72
2023/03/31 07:29:09;;;;;;;;;;;;;;;;;;5055503;28;20320;-73
2023/03/31 07:31:36;;;;;;;;;;;11.80;1.00;;;;;;5055458;28;19922;-74
2023/03/31 07:34:06;;;;;;;;;;;11.80;1.00;;;;;;5055207;28;19909;-73
2023/03/31 07:36:49;;;;;;;;;;;12.00;1.00;;;;;;5055125;28;20285;-73
2023/03/31 07:39:18;;;;;;;;;;;;;;;;;;5055340;28;19909;-73
2023/03/31 07:41:45;;;;;;;;;;;12.10;1.00;;;;;;5055469;28;19909;-73
2023/03/31 07:44:12;;;;;;;;;;;12.30;1.00;;;;;;5054580;28;19921;-73
2023/03/31 07:46:39;;;;;;;;;;;12.50;1.00;;;;;;5055330;28;19908;-73
2023/03/31 07:49:06;;;;;;;;;;;;;;;;;;5054949;28;19952;-72
2023/03/31 07:51:33;;;;;;;;;;;12.30;1.00;;;;;;5053687;28;19908;-73
2023/03/31 07:54:00;;;;;;;;;;;12.70;99.90;;;;;;5054923;28;19909;-72
2023/03/31 07:56:29;;;;;;;;;;;12.60;99.90;;;;;;5054183;28;20320;-73
2023/03/31 07:58:56;;;;;;;;;;;12.80;1.00;;;;;;5054817;28;20389;-72
2023/03/31 08:01:24;;;;;;;;;;;12.50;99.90;;;;;;5055146;28;19999;-73
2023/03/31 08:04:01;;;;;;;;;;;12.30;1.00;;;;;;5054643;28;19952;-73
2023/03/31 08:06:28;;;;;;;;;;;12.20;1.00;;;;;;5054774;28;19915;-72
2023/03/31 08:08:58;;;;;;;;;;;12.00;1.00;;;;;;5054529;28;19908;-73
2023/03/31 08:11:26;;;;;;;;;;;11.70;1.00;;;;;;5054520;28;19916;-72
2023/03/31 08:13:54;;;;;;;;;;;11.90;1.00;;;;;;5054419;28;19918;-72
2023/03/31 08:16:21;;;;;;;;;;;11.90;1.00;;;;;;5054445;28;19986;-74
2023/03/31 08:18:47;;;;;;;;;;;12.00;1.00;;;;;;5054362;28;20370;-73
2023/03/31 08:21:17;;;;;;;;;;;12.10;1.00;;;;;;5054353;28;19909;-72
2023/03/31 08:23:47;;;;;;;;;;;11.80;29.80;;;;;;5052947;28;19909;-74
2023/03/31 08:26:17;;;;;;;;;;;12.30;1.00;;;;;;5054633;28;19909;-74
2023/03/31 08:28:43;;;;;;;;;;;;;;;;;;5054096;28;19931;-72
2023/03/31 08:31:18;;;;;;;;;;;12.90;1.00;;;;;;5054136;28;19963;-74
2023/03/31 08:33:48;;;;;;;;;;;12.70;1.00;;;;;;5054268;28;19956;-73
2023/03/31 08:36:19;;;;;;;;;;;12.70;1.00;;;;;;5054274;28;19920;-74
2023/03/31 08:38:48;;;;;;;;;;;12.90;1.00;;;;;;5054285;28;19954;-72
2023/03/31 08:41:28;;;;;;;;;;;13.40;1.00;;;;;;5052718;28;20444;-74
2023/03/31 08:43:57;;;;;;;;;;;14.40;99.90;;;;;;5053950;28;19921;-74
2023/03/31 08:46:23;;;;;;;;;;;;;;;;;;5054052;28;19951;-75
2023/03/31 08:48:54;;;;;;;;;;;15.70;99.90;;;;;;5053873;28;19913;-73
2023/03/31 08:51:30;;;;;;;;;;;15.70;99.90;;;;;;5054114;28;19913;-73
2023/03/31 08:54:10;;;;;;;;;;;15.90;99.90;;;;;;5054162;28;20019;-74
2023/03/31 08:56:39;;;;;;;;;;;15.60;99.90;;;;;;5053860;28;19915;-74
2023/03/31 08:59:16;;;;;;;;;;;16.20;99.90;;;;;;5054256;28;20399;-73
2023/03/31 09:01:48;;;;;;;;;;;16.10;99.90;;;;;;5053983;28;20016;-73
2023/03/31 09:04:33;;;;;;;;;;;16.10;99.90;;;;;;5053684;28;19908;-73
2023/03/31 09:07:19;;;;;;;;;;;17.00;99.90;;;;;;5053712;28;20032;-73
2023/03/31 09:09:54;;;;;;;;;;;17.50;99.90;;;;;;5052406;28;19909;-73
2023/03/31 09:12:28;;;;;;;;;;;16.70;99.90;;;;;;5053923;28;19920;-73
2023/03/31 09:14:59;;;;;;;;;;;16.30;99.90;;;;;;5053603;28;19912;-74
2023/03/31 09:17:28;;;;;;;;;;;16.30;99.90;;;;;;5053629;28;20453;-73
2023/03/31 09:19:57;;;;;;;;;;;15.80;99.90;;;;;;5053729;28;20026;-73
2023/03/31 09:22:35;;;;;;;;;;;15.20;99.90;;;;;;5053787;28;19916;-74
2023/03/31 09:25:10;;;;;;;;;;;15.00;99.90;;;;;;5053546;28;20258;-72
2023/03/31 09:27:40;;;;;;;;;;;16.10;99.90;;;;;;5055425;28;19909;-73
2023/03/31 09:30:16;;;;;;;;;;;15.30;99.90;;;;;;5057568;28;19916;-74
2023/03/31 09:32:42;;;;;;;;;;;14.90;99.90;;;;;;5058115;28;19908;-73
2023/03/31 09:35:15;;;;;;;;;;;15.40;99.90;;;;;;5056184;28;20020;-73
2023/03/31 09:37:40;;;;;;;;;;;15.80;99.90;;;;;;5057666;28;19909;-73
2023/03/31 09:40:06;;;;;;;;;;;16.10;99.90;;;;;;5057833;28;19909;-73
2023/03/31 09:42:35;;;;;;;;;;;16.30;99.90;;;;;;5057178;28;19923;-74
2023/03/31 09:45:01;;;;;;;;;;;16.20;99.90;;;;;;5055720;28;20313;-73
2023/03/31 09:47:37;;;;;;;;;;;16.10;99.90;;;;;;5057243;28;19909;-73
2023/03/31 09:50:05;;;;;;;;;;;16.10;99.90;;;;;;5055860;28;19913;-73
2023/03/31 09:52:36;;;;;;;;;;;15.80;99.90;;;;;;5057141;28;19916;-73
2023/03/31 09:55:04;;;;;;;;;;;16.00;99.90;;;;;;5057048;28;19913;-73
2023/03/31 09:57:32;;;;;;;;;;;15.80;99.90;;;;;;5057193;28;19913;-73
2023/03/31 10:00:18;;;;;;;;;;;15.40;99.90;;;;;;5057183;28;19908;-73
2023/03/31 10:02:50;;;;;;;;;;;15.40;99.90;;;;;;5057155;28;19916;-72
2023/03/31 10:05:22;;;;;;;;;;;16.00;99.90;;;;;;5056951;28;20288;-73
2023/03/31 10:07:47;;;;;;;;;;;17.10;99.90;;;;;;5056975;28;19908;-74
2023/03/31 10:10:31;;;;;;;;;;;17.10;99.90;;;;;;5056816;28;20277;-73
2023/03/31 10:12:58;;;;;;;;;;;17.10;99.90;;;;;;5056989;28;19917;-73
2023/03/31 10:15:27;;;;;;;;;;;16.90;99.90;;;;;;5056701;28;20401;-73
2023/03/31 10:17:53;;;;;;;;;;;18.00;99.90;;;;;;5056962;28;19909;-73
2023/03/31 10:20:29;;;;;;;;;;;20.00;99.90;;;;;;5056856;28;19915;-74
2023/03/31 10:22:55;;;;;;;;;;;19.30;99.90;;;;;;5056979;28;20329;-74
2023/03/31 10:25:23;;;;;;;;;;;18.30;99.90;;;;;;5055263;28;19948;-73
2023/03/31 10:27:51;;;;;;;;;;;17.30;99.90;;;;;;5057070;28;19955;-73
2023/03/31 10:30:19;;;;;;;;;;;17.90;99.90;;;;;;5062669;28;19923;-73
2023/03/31 10:32:46;;;;;;;;;;;17.50;99.90;;;;;;5069033;28;20365;-73
2023/03/31 10:35:23;;;;;;;;;;;18.00;99.90;;;;;;5076062;28;19974;-72
2023/03/31 10:37:50;;;;;;;;;;;17.80;99.90;;;;;;5072266;28;19971;-73
2023/03/31 10:40:19;;;;;;;;;;;17.80;99.90;;;;;;5076323;28;19954;-72
2023/03/31 10:42:46;;;;;;;;;;;18.30;99.90;;;;;;5075952;28;19920;-73
2023/03/31 10:45:12;;;;;;;;;;;20.50;99.90;;;;;;5075896;28;19913;-73
2023/03/31 10:47:38;;;;;;;;;;;19.50;99.90;;;;;;5075848;28;19915;-72
2023/03/31 10:50:12;;;;;;;;;;;17.60;99.90;;;;;;5075849;28;19909;-74
2023/03/31 10:52:42;;;;;;;;;;;17.60;99.90;;;;;;5075715;28;19991;-73
2023/03/31 10:55:12;;;;;;;;;;;18.40;99.90;;;;;;5075818;28;19909;-74
2023/03/31 10:57:54;;;;;;;;;;;19.30;99.90;;;;;;5075860;28;19970;-73
2023/03/31 11:00:40;;;;;;;;;;;21.20;99.90;;;;;;5075035;28;19916;-74
2023/03/31 11:03:17;;;;;;;;;;;23.40;99.90;;;;;;5075734;28;20288;-71
2023/03/31 11:05:51;;;;;;;;;;;24.70;99.90;;;;;;5075323;28;19935;-72
2023/03/31 11:08:40;;;;;;;;;;;26.30;99.90;;;;;;5075508;28;19951;-71
2023/03/31 11:11:16;;;;;;;;;;;22.80;99.90;;;;;;5075541;28;20284;-73
2023/03/31 11:13:54;;;;;;;;;;;20.10;99.90;;;;;;5075633;28;19996;-73
2023/03/31 11:16:20;;;;;;;;;;;18.60;99.90;;;;;;5075032;28;20266;-73
2023/03/31 11:19:00;;;;;;;;;;;17.70;99.90;;;;;;5075397;28;19959;-73
2023/03/31 11:21:37;;;;;;;;;;;17.30;99.90;;;;;;5075535;28;19909;-74
2023/03/31 11:24:37;;;;;;;;;;;18.20;99.90;;;;;;5075154;28;19974;-73
2023/03/31 11:27:15;;;;;;;;;;;22.90;99.90;;;;;;5062360;28;20388;-72
2023/03/31 11:29:58;;;;;;;;;;;25.00;99.90;;;;;;5075069;28;19909;-73
2023/03/31 11:32:30;;;;;;;;;;;26.60;99.90;;;;;;5074887;28;19941;-72
2023/03/31 11:35:13;;;;;;;;;;;27.90;99.90;;;;;;5075439;28;19999;-73
2023/03/31 11:37:48;;;;;;;;;;;28.90;99.90;;;;;;5075178;28;19948;-73
2023/03/31 11:40:30;;;;;;;;;;;28.20;99.90;;;;;;5075395;28;20361;-73
2023/03/31 11:43:06;;;;;;;;;;;27.50;99.90;;;;;;5075047;28;20007;-72
2023/03/31 11:45:38;;;;;;;;;;;22.90;99.90;;;;;;5075059;28;20287;-72
2023/03/31 11:48:11;;;;;;;;;;;20.90;99.90;;;;;;5074948;28;19909;-73
2023/03/31 11:50:38;;;;;;;;;;;19.50;99.90;;;;;;5074829;28;19931;-73
2023/03/31 11:53:06;;;;;;;;;;;19.00;99.90;;;;;;5074925;28;19915;-73
2023/03/31 11:55:33;;;;;;;;;;;21.50;99.90;;;;;;5074862;28;19926;-71
2023/03/31 11:57:59;;;;;;;;;;;;;;;;;;5074617;28;19909;-73
2023/03/31 12:00:26;;;;;;;;;;;;;;;;;;5074934;28;19946;-72
2023/03/31 12:02:52;;;;;;;;;;;;;;;;;;5074976;28;19908;-72
2023/03/31 12:05:19;;;;;;;;;;;27.20;99.90;;;;;;5075205;28;20277;-72
2023/03/31 12:07:51;;;;;;;;;;;26.40;99.90;;;;;;5075299;28;19909;-73
2023/03/31 12:10:18;;;;;;;;;;;;;;;;;;5074980;28;19908;-73
2023/03/31 12:12:46;;;;;;;;;;;;;;;;;;5073370;28;19908;-72
2023/03/31 12:15:14;;;;;;;;;;;;;;;;;;5074667;28;19967;-72
2023/03/31 12:17:42;;;;;;;;;;;23.90;99.90;;;;;;5074497;28;19933;-74
2023/03/31 12:20:13;;;;;;;;;;;26.10;99.90;;;;;;5074579;28;19908;-73
2023/03/31 12:22:42;;;;;;;;;;;28.20;99.90;;;;;;5074804;28;19908;-73
2023/03/31 12:25:11;;;;;;;;;;;28.00;99.90;;;;;;5074434;28;20023;-74
2023/03/31 12:27:40;;;;;;;;;;;29.50;99.90;;;;;;5074133;28;19916;-73
2023/03/31 12:30:15;;;;;;;;;;;30.50;99.90;;;;;;5074384;28;19958;-73
2023/03/31 12:32:55;;;;;;;;;;;28.50;99.90;;;;;;5074469;28;19987;-73
2023/03/31 12:35:21;;;;;;;;;;;30.10;99.90;;;;;;5074111;28;19909;-73
2023/03/31 12:37:46;;;;;;;;;;;32.00;99.90;;;;;;5074206;28;20360;-73
2023/03/31 12:40:26;;;;;;;;;;;32.10;99.90;;;;;;5074233;28;19955;-73
2023/03/31 12:42:58;;;;;;;;;;;29.50;99.90;;;;;;5074184;28;19924;-71
2023/03/31 12:45:31;;;;;;;;;;;27.10;99.90;;;;;;5073936;28;19916;-73
2023/03/31 12:48:12;;;;;;;;;;;24.90;99.90;;;;;;5073924;28;19991;-71
2023/03/31 12:50:50;;;;;;;;;;;21.80;99.90;;;;;;5072427;28;19914;-72
2023/03/31 12:53:22;;;;;;;;;;;23.30;99.90;;;;;;5074188;28;19991;-73
2023/03/31 12:55:53;;;;;;;;;;;;;;;;;;5073992;28;19947;-72
2023/03/31 12:58:21;;;;;;;;;;;22.00;99.90;;;;;;5073948;28;19946;-71
2023/03/31 13:01:04;;;;;;;;;;;24.00;99.90;;;;;;5073634;28;19912;-71
2023/03/31 13:03:36;;;;;;;;;;;25.00;99.90;;;;;;5073505;28;19912;-71
2023/03/31 13:06:02;;;;;;;;;;;22.50;99.90;;;;;;5073588;28;20364;-72
2023/03/31 13:08:30;;;;;;;;;;;;;;;;;;5073791;28;19915;-72
2023/03/31 13:10:57;;;;;;;;;;;;;;;;;;5073687;28;19909;-71
2023/03/31 13:13:23;;;;;;;;;;;20.80;99.90;;;;;;5073836;28;19909;-72
2023/03/31 13:15:54;;;;;;;;;;;20.90;99.90;;;;;;5073748;28;19931;-72
2023/03/31 13:18:20;;;;;;;;;;;;;;;;;;5073826;28;20386;-73
2023/03/31 13:20:45;;;;;;;;;;;17.80;99.90;;;;;;5074239;28;20006;-73
2023/03/31 13:23:19;;;;;;;;;;;16.10;99.90;;;;;;5073523;28;19955;-74
2023/03/31 13:25:45;;;;;;;;;;;;;;;;;;5073593;28;19956;-72
2023/03/31 13:28:12;;;;;;;;;;;;;;;;;;5073765;28;19919;-73
2023/03/31 13:30:38;;;;;;;;;;;25.70;99.90;;;;;;5073466;28;19908;-72
2023/03/31 13:33:08;;;;;;;;;;;27.60;99.90;;;;;;5072168;28;19908;-74
2023/03/31 13:35:35;;;;;;;;;;;27.90;99.90;;;;;;5073530;28;20361;-73
2023/03/31 13:38:07;;;;;;;;;;;29.30;99.90;;;;;;5073350;28;19909;-73
2023/03/31 13:40:44;;;;;;;;;;;29.20;99.90;;;;;;5073507;28;19915;-73
2023/03/31 13:43:29;;;;;;;;;;;29.30;99.90;;;;;;5073247;28;19924;-73
2023/03/31 13:46:03;;;;;;;;;;;29.40;99.90;;;;;;5073313;28;20011;-72
2023/03/31 13:48:31;;;;;;;;;;;27.10;99.90;;;;;;5073292;28;19908;-73
2023/03/31 13:50:56;;;;;;;;;;;27.00;99.90;;;;;;5073494;28;19916;-73
2023/03/31 13:53:34;;;;;;;;;;;25.90;99.90;;;;;;5073508;28;19908;-72
2023/03/31 13:56:07;;;;;;;;;;;21.70;99.90;;;;;;5073301;28;20276;-71
2023/03/31 13:58:51;;;;;;;;;;;20.50;99.90;;;;;;5073271;28;19916;-72
2023/03/31 14:01:17;;;;;;;;;;;22.20;99.90;;;;;;5073597;28;20361;-72
2023/03/31 14:03:49;;;;;;;;;;;20.00;99.90;;;;;;5073721;28;19915;-72
2023/03/31 14:06:15;;;;;;;;;;;18.20;99.90;;;;;;5073391;28;20021;-72
2023/03/31 14:08:50;;;;;;;;;;;15.70;99.90;;;;;;5073281;28;20427;-72
2023/03/31 14:11:15;;;;;;;;;;;14.80;99.90;;;;;;5073129;28;19947;-72
2023/03/31 14:13:41;;;;;;;;;;;15.90;99.90;;;;;;5074910;28;19912;-72
2023/03/31 14:16:07;;;;;;;;;;;20.10;99.90;;;;;;5076911;28;19953;-74
2023/03/31 14:18:34;;;;;;;;;;;20.90;99.90;;;;;;5076734;28;19908;-72
2023/03/31 14:21:12;;;;;;;;;;;22.80;99.90;;;;;;5076642;28;19908;-72
2023/03/31 14:23:53;;;;;;;;;;;22.90;99.90;;;;;;5076923;28;19915;-71
2023/03/31 14:26:34;;;;;;;;;;;24.20;99.90;;;;;;5076700;28;20335;-72
2023/03/31 14:29:10;;;;;;;;;;;25.10;99.90;;;;;;5076646;28;19908;-71
2023/03/31 14:31:40;;;;;;;;;;;24.20;99.90;;;;;;5076680;28;20372;-71
2023/03/31 14:34:07;;;;;;;;;;;21.80;99.90;;;;;;5076651;28;19908;-72
2023/03/31 14:36:56;;;;;;;;;;;19.80;99.90;;;;;;5076395;28;20049;-71
2023/03/31 14:39:25;;;;;;;;;;;20.30;99.90;;;;;;5070664;28;20372;-72
2023/03/31 14:41:52;;;;;;;;;;;19.30;99.90;;;;;;5076648;28;20286;-71
2023/03/31 14:44:18;;;;;;;;;;;18.60;99.90;;;;;;5076027;28;19943;-71
2023/03/31 14:46:45;;;;;;;;;;;21.40;99.90;;;;;;5076357;28;19919;-72
2023/03/31 14:49:19;;;;;;;;;;;20.10;99.90;;;;;;5076620;28;19912;-71
2023/03/31 14:51:45;;;;;;;;;;;18.70;99.90;;;;;;5076314;28;19909;-71
2023/03/31 14:54:17;;;;;;;;;;;17.80;99.90;;;;;;5076179;28;19988;-71
2023/03/31 14:56:44;;;;;;;;;;;17.10;99.90;;;;;;5075999;28;20010;-71
2023/03/31 14:59:14;;;;;;;;;;;18.50;99.90;;;;;;5076068;28;19908;-73
2023/03/31 15:01:40;;;;;;;;;;;19.40;99.90;;;;;;5074680;28;19940;-72
2023/03/31 15:04:07;;;;;;;;;;;18.10;99.90;;;;;;5076126;28;19948;-71
2023/03/31 15:06:33;;;;;;;;;;;18.20;99.90;;;;;;5075755;28;19919;-70
2023/03/31 15:09:01;;;;;;;;;;;18.90;99.90;;;;;;5075861;28;19991;-71
2023/03/31 15:11:27;;;;;;;;;;;19.00;99.90;;;;;;5076085;28;20288;-71
2023/03/31 15:13:53;;;;;;;;;;;20.80;99.90;;;;;;5075372;28;19919;-71
2023/03/31 15:16:20;;;;;;;;;;;18.90;99.90;;;;;;5076083;28;19963;-73
2023/03/31 15:18:46;;;;;;;;;;;17.60;99.90;;;;;;5075653;28;19908;-71
2023/03/31 15:21:22;;;;;;;;;;;20.10;99.90;;;;;;5075596;28;19935;-72
2023/03/31 15:23:51;;;;;;;;;;;21.60;99.90;;;;;;5075614;28;19995;-71